sensor_id;sensor_type;location;lat;lon;timestamp;pressure;altitude;pressure_sealevel;temperature;humidity
19208;BME280;9737;59.466;18.036;2023-05-02T00:00:33;98814.13;;;6.78;70.43
19208;BME280;9737;59.466;18.036;2023-05-02T00:03:02;98820.13;;;6.80;70.08
19208;BME280;9737;59.466;18.036;2023-05-02T00:05:31;98825.28;;;6.82;70.43
19208;BME280;9737;59.466;18.036;2023-05-02T00:07:59;98805.63;;;6.75;70.57
19208;BME280;9737;59.466;18.036;2023-05-02T00:10:28;98808.16;;;6.76;70.68
19208;BME280;9737;59.466;18.036;2023-05-02T00:12:56;98782.25;;;6.70;70.74
19208;BME280;9737;59.466;18.036;2023-05-02T00:15:24;98812.47;;;6.77;70.37
19208;BME280;9737;59.466;18.036;2023-05-02T00:17:53;98804.78;;;6.74;70.46
19208;BME280;9737;59.466;18.036;2023-05-02T00:20:21;98826.25;;;6.81;70.39
19208;BME280;9737;59.466;18.036;2023-05-02T00:22:49;98819.56;;;6.77;70.87
19208;BME280;9737;59.466;18.036;2023-05-02T00:25:17;98795.06;;;6.75;70.89
19208;BME280;9737;59.466;18.036;2023-05-02T00:27:46;98829.88;;;6.80;71.11
19208;BME280;9737;59.466;18.036;2023-05-02T00:30:16;98792.09;;;6.68;70.76
19208;BME280;9737;59.466;18.036;2023-05-02T00:32:46;98769.66;;;6.63;71.10
19208;BME280;9737;59.466;18.036;2023-05-02T00:35:15;98736.81;;;6.56;70.85
19208;BME280;9737;59.466;18.036;2023-05-02T00:37:46;98690.16;;;6.45;70.79
19208;BME280;9737;59.466;18.036;2023-05-02T00:40:14;98655.75;;;6.35;71.41
19208;BME280;9737;59.466;18.036;2023-05-02T00:42:42;98571.56;;;6.11;70.90
19208;BME280;9737;59.466;18.036;2023-05-02T00:45:11;98536.94;;;6.05;70.78
19208;BME280;9737;59.466;18.036;2023-05-02T00:47:39;98503.53;;;5.94;71.33
19208;BME280;9737;59.466;18.036;2023-05-02T00:50:07;98486.19;;;5.92;70.93
19208;BME280;9737;59.466;18.036;2023-05-02T00:52:36;98471.53;;;5.87;71.42
19208;BME280;9737;59.466;18.036;2023-05-02T00:55:05;98435.41;;;5.78;70.94
19208;BME280;9737;59.466;18.036;2023-05-02T00:57:33;98401.03;;;5.69;71.13
19208;BME280;9737;59.466;18.036;2023-05-02T01:00:01;98356.31;;;5.57;71.52
19208;BME280;9737;59.466;18.036;2023-05-02T01:02:37;98339.94;;;5.54;71.20
19208;BME280;9737;59.466;18.036;2023-05-02T01:05:13;98315.03;;;5.47;71.55
19208;BME280;9737;59.466;18.036;2023-05-02T01:07:59;98288.63;;;5.37;71.11
19208;BME280;9737;59.466;18.036;2023-05-02T01:10:40;98297.81;;;5.43;71.77
19208;BME280;9737;59.466;18.036;2023-05-02T01:13:13;98262.81;;;5.31;71.97
19208;BME280;9737;59.466;18.036;2023-05-02T01:15:44;98267.13;;;5.32;71.84
19208;BME280;9737;59.466;18.036;2023-05-02T01:18:17;98250.72;;;5.28;71.82
19208;BME280;9737;59.466;18.036;2023-05-02T01:20:51;98220.72;;;5.20;71.52
19208;BME280;9737;59.466;18.036;2023-05-02T01:23:24;98194.75;;;5.15;72.06
19208;BME280;9737;59.466;18.036;2023-05-02T01:26:13;98176.03;;;5.09;71.88
19208;BME280;9737;59.466;18.036;2023-05-02T01:28:54;98151.31;;;5.00;71.32
19208;BME280;9737;59.466;18.036;2023-05-02T01:31:24;98106.47;;;4.90;72.11
19208;BME280;9737;59.466;18.036;2023-05-02T01:33:54;98094.56;;;4.86;71.61
19208;BME280;9737;59.466;18.036;2023-05-02T01:36:26;98050.72;;;4.76;71.47
19208;BME280;9737;59.466;18.036;2023-05-02T01:38:56;98065.44;;;4.78;71.70
19208;BME280;9737;59.466;18.036;2023-05-02T01:41:26;98061.25;;;4.76;72.21
19208;BME280;9737;59.466;18.036;2023-05-02T01:43:57;98010.38;;;4.65;72.27
19208;BME280;9737;59.466;18.036;2023-05-02T01:46:26;98021.63;;;4.68;71.79
19208;BME280;9737;59.466;18.036;2023-05-02T01:48:56;97994.69;;;4.54;71.99
19208;BME280;9737;59.466;18.036;2023-05-02T01:51:27;98010.63;;;4.62;72.25
19208;BME280;9737;59.466;18.036;2023-05-02T01:53:58;98008.72;;;4.64;72.32
19208;BME280;9737;59.466;18.036;2023-05-02T01:56:28;98008.00;;;4.62;72.53
19208;BME280;9737;59.466;18.036;2023-05-02T01:59:00;97987.22;;;4.59;72.13
19208;BME280;9737;59.466;18.036;2023-05-02T02:01:29;97959.06;;;4.50;72.30
19208;BME280;9737;59.466;18.036;2023-05-02T02:03:57;97947.84;;;4.48;72.29
19208;BME280;9737;59.466;18.036;2023-05-02T02:06:27;97915.16;;;4.41;72.25
19208;BME280;9737;59.466;18.036;2023-05-02T02:08:55;97928.03;;;4.44;72.60
19208;BME280;9737;59.466;18.036;2023-05-02T02:11:26;97909.47;;;4.36;72.24
19208;BME280;9737;59.466;18.036;2023-05-02T02:14:02;97906.13;;;4.34;72.88
19208;BME280;9737;59.466;18.036;2023-05-02T02:16:33;97885.19;;;4.32;72.58
19208;BME280;9737;59.466;18.036;2023-05-02T02:19:06;97880.06;;;4.31;72.78
19208;BME280;9737;59.466;18.036;2023-05-02T02:21:36;97885.31;;;4.31;72.32
19208;BME280;9737;59.466;18.036;2023-05-02T02:24:06;97917.78;;;4.41;72.45
19208;BME280;9737;59.466;18.036;2023-05-02T02:26:35;97907.53;;;4.38;72.81
19208;BME280;9737;59.466;18.036;2023-05-02T02:29:05;97896.31;;;4.36;72.48
19208;BME280;9737;59.466;18.036;2023-05-02T02:31:33;97867.16;;;4.18;72.83
19208;BME280;9737;59.466;18.036;2023-05-02T02:34:21;97858.59;;;4.26;72.61
19208;BME280;9737;59.466;18.036;2023-05-02T02:36:52;97848.47;;;4.21;72.79
19208;BME280;9737;59.466;18.036;2023-05-02T02:39:34;97839.75;;;4.21;72.86
19208;BME280;9737;59.466;18.036;2023-05-02T02:42:09;97812.88;;;4.08;72.97
19208;BME280;9737;59.466;18.036;2023-05-02T02:44:45;97782.53;;;4.03;72.72
19208;BME280;9737;59.466;18.036;2023-05-02T02:47:20;97755.97;;;3.97;72.88
19208;BME280;9737;59.466;18.036;2023-05-02T02:50:03;97753.34;;;3.97;73.17
19208;BME280;9737;59.466;18.036;2023-05-02T02:52:49;97760.13;;;3.99;73.32
19208;BME280;9737;59.466;18.036;2023-05-02T02:55:25;97731.75;;;3.93;73.01
19208;BME280;9737;59.466;18.036;2023-05-02T02:58:01;97748.22;;;3.95;73.00
19208;BME280;9737;59.466;18.036;2023-05-02T03:00:33;97743.91;;;3.94;73.22
19208;BME280;9737;59.466;18.036;2023-05-02T03:03:02;97737.00;;;3.93;73.09
19208;BME280;9737;59.466;18.036;2023-05-02T03:05:32;97720.09;;;3.86;73.11
19208;BME280;9737;59.466;18.036;2023-05-02T03:08:00;97724.41;;;3.87;73.14
19208;BME280;9737;59.466;18.036;2023-05-02T03:10:27;97723.44;;;3.88;73.29
19208;BME280;9737;59.466;18.036;2023-05-02T03:12:55;97684.00;;;3.79;72.99
19208;BME280;9737;59.466;18.036;2023-05-02T03:16:05;97688.28;;;3.80;73.26
19208;BME280;9737;59.466;18.036;2023-05-02T03:18:39;97678.97;;;3.76;73.43
19208;BME280;9737;59.466;18.036;2023-05-02T03:21:07;97671.25;;;3.74;73.57
19208;BME280;9737;59.466;18.036;2023-05-02T03:23:35;97659.34;;;3.70;73.58
19208;BME280;9737;59.466;18.036;2023-05-02T03:26:03;97662.78;;;3.70;73.67
19208;BME280;9737;59.466;18.036;2023-05-02T03:28:31;97650.06;;;3.66;73.22
19208;BME280;9737;59.466;18.036;2023-05-02T03:31:00;97638.03;;;3.63;73.47
19208;BME280;9737;59.466;18.036;2023-05-02T03:33:29;97643.16;;;3.65;73.46
19208;BME280;9737;59.466;18.036;2023-05-02T03:35:58;97639.84;;;3.63;73.60
19208;BME280;9737;59.466;18.036;2023-05-02T03:38:28;97630.97;;;3.64;73.70
19208;BME280;9737;59.466;18.036;2023-05-02T03:40:56;97601.94;;;3.56;73.45
19208;BME280;9737;59.466;18.036;2023-05-02T03:43:24;97602.50;;;3.50;73.41
19208;BME280;9737;59.466;18.036;2023-05-02T03:45:52;97601.25;;;3.54;73.84
19208;BME280;9737;59.466;18.036;2023-05-02T03:48:21;97587.41;;;3.52;73.53
19208;BME280;9737;59.466;18.036;2023-05-02T03:50:49;97563.59;;;3.43;73.58
19208;BME280;9737;59.466;18.036;2023-05-02T03:53:17;97574.56;;;3.49;73.65
19208;BME280;9737;59.466;18.036;2023-05-02T03:55:45;97565.94;;;3.47;73.62
19208;BME280;9737;59.466;18.036;2023-05-02T03:58:13;97568.72;;;3.45;73.78
19208;BME280;9737;59.466;18.036;2023-05-02T04:00:40;97571.22;;;3.47;73.91
19208;BME280;9737;59.466;18.036;2023-05-02T04:03:09;97574.81;;;3.46;73.85
19208;BME280;9737;59.466;18.036;2023-05-02T04:05:38;97565.94;;;3.47;74.01
19208;BME280;9737;59.466;18.036;2023-05-02T04:08:06;97578.16;;;3.48;73.87
19208;BME280;9737;59.466;18.036;2023-05-02T04:10:33;97577.31;;;3.47;74.04
19208;BME280;9737;59.466;18.036;2023-05-02T04:13:02;97573.84;;;3.47;73.91
19208;BME280;9737;59.466;18.036;2023-05-02T04:15:29;97580.78;;;3.48;74.04
19208;BME280;9737;59.466;18.036;2023-05-02T04:17:57;97595.31;;;3.52;73.96
19208;BME280;9737;59.466;18.036;2023-05-02T04:20:25;97595.31;;;3.52;74.13
19208;BME280;9737;59.466;18.036;2023-05-02T04:22:55;97589.22;;;3.51;74.02
19208;BME280;9737;59.466;18.036;2023-05-02T04:25:23;97596.97;;;3.53;74.08
19208;BME280;9737;59.466;18.036;2023-05-02T04:27:50;97585.91;;;3.49;73.98
19208;BME280;9737;59.466;18.036;2023-05-02T04:30:18;97593.63;;;3.51;74.23
19208;BME280;9737;59.466;18.036;2023-05-02T04:32:46;97577.31;;;3.47;74.17
19208;BME280;9737;59.466;18.036;2023-05-02T04:35:14;97590.31;;;3.49;74.46
19208;BME280;9737;59.466;18.036;2023-05-02T04:37:43;97593.63;;;3.51;74.24
19208;BME280;9737;59.466;18.036;2023-05-02T04:40:12;97576.47;;;3.47;74.24
19208;BME280;9737;59.466;18.036;2023-05-02T04:42:40;97604.16;;;3.51;74.12
19208;BME280;9737;59.466;18.036;2023-05-02T04:45:08;97603.88;;;3.54;74.26
19208;BME280;9737;59.466;18.036;2023-05-02T04:47:36;97584.25;;;3.48;74.37
19208;BME280;9737;59.466;18.036;2023-05-02T04:50:05;97585.91;;;3.49;74.36
19208;BME280;9737;59.466;18.036;2023-05-02T04:52:33;97599.72;;;3.51;74.43
19208;BME280;9737;59.466;18.036;2023-05-02T04:55:01;97595.31;;;3.52;74.57
19208;BME280;9737;59.466;18.036;2023-05-02T04:57:30;97605.81;;;3.52;74.68
19208;BME280;9737;59.466;18.036;2023-05-02T04:59:58;97614.38;;;3.54;74.38
19208;BME280;9737;59.466;18.036;2023-05-02T05:02:26;97641.63;;;3.62;74.38
19208;BME280;9737;59.466;18.036;2023-05-02T05:04:54;97660.59;;;3.66;74.85
19208;BME280;9737;59.466;18.036;2023-05-02T05:07:22;97680.38;;;3.70;74.79
19208;BME280;9737;59.466;18.036;2023-05-02T05:09:51;97681.06;;;3.72;74.66
19208;BME280;9737;59.466;18.036;2023-05-02T05:12:19;97664.88;;;3.67;74.70
19208;BME280;9737;59.466;18.036;2023-05-02T05:14:48;97679.41;;;3.71;74.90
19208;BME280;9737;59.466;18.036;2023-05-02T05:17:16;97656.16;;;3.66;75.00
19208;BME280;9737;59.466;18.036;2023-05-02T05:19:44;97660.44;;;3.67;74.67
19208;BME280;9737;59.466;18.036;2023-05-02T05:22:12;97677.75;;;3.70;74.77
19208;BME280;9737;59.466;18.036;2023-05-02T05:24:41;97699.19;;;3.75;75.05
19208;BME280;9737;59.466;18.036;2023-05-02T05:27:08;97709.47;;;3.78;74.70
19208;BME280;9737;59.466;18.036;2023-05-02T05:29:36;97732.56;;;3.84;74.74
19208;BME280;9737;59.466;18.036;2023-05-02T05:32:05;97711.81;;;3.81;74.83
19208;BME280;9737;59.466;18.036;2023-05-02T05:34:33;97734.22;;;3.85;75.05
19208;BME280;9737;59.466;18.036;2023-05-02T05:37:01;97749.72;;;3.88;75.20
19208;BME280;9737;59.466;18.036;2023-05-02T05:39:29;97771.88;;;3.95;74.97
19208;BME280;9737;59.466;18.036;2023-05-02T05:41:57;97790.97;;;3.97;75.06
19208;BME280;9737;59.466;18.036;2023-05-02T05:44:26;97752.50;;;3.87;75.32
19208;BME280;9737;59.466;18.036;2023-05-02T05:46:54;97739.47;;;3.85;75.02
19208;BME280;9737;59.466;18.036;2023-05-02T05:49:23;97710.41;;;3.77;75.01
19208;BME280;9737;59.466;18.036;2023-05-02T05:51:51;97717.19;;;3.80;75.01
19208;BME280;9737;59.466;18.036;2023-05-02T05:54:19;97719.00;;;3.79;75.30
19208;BME280;9737;59.466;18.036;2023-05-02T05:56:47;97728.28;;;3.83;75.00
19208;BME280;9737;59.466;18.036;2023-05-02T05:59:15;97725.91;;;3.80;75.35
19208;BME280;9737;59.466;18.036;2023-05-02T06:01:43;97726.75;;;3.81;75.21
19208;BME280;9737;59.466;18.036;2023-05-02T06:04:11;97750.56;;;3.89;75.26
19208;BME280;9737;59.466;18.036;2023-05-02T06:06:40;97796.94;;;3.99;75.17
19208;BME280;9737;59.466;18.036;2023-05-02T06:09:08;97863.00;;;4.16;75.56
19208;BME280;9737;59.466;18.036;2023-05-02T06:11:37;97905.94;;;4.26;75.41
19208;BME280;9737;59.466;18.036;2023-05-02T06:14:05;97891.41;;;4.22;75.14
19208;BME280;9737;59.466;18.036;2023-05-02T06:16:32;97905.94;;;4.26;75.26
19208;BME280;9737;59.466;18.036;2023-05-02T06:19:00;97886.28;;;4.20;75.59
19208;BME280;9737;59.466;18.036;2023-05-02T06:21:28;97899.03;;;4.25;75.67
19208;BME280;9737;59.466;18.036;2023-05-02T06:23:58;97918.69;;;4.30;75.60
19208;BME280;9737;59.466;18.036;2023-05-02T06:26:26;97996.19;;;4.47;75.18
19208;BME280;9737;59.466;18.036;2023-05-02T06:28:53;98084.53;;;4.71;75.45
19208;BME280;9737;59.466;18.036;2023-05-02T06:31:21;98082.72;;;4.71;75.52
19208;BME280;9737;59.466;18.036;2023-05-02T06:33:49;98094.78;;;4.74;75.42
19208;BME280;9737;59.466;18.036;2023-05-02T06:36:18;98101.72;;;4.75;75.36
19208;BME280;9737;59.466;18.036;2023-05-02T06:38:46;98105.06;;;4.77;75.32
19208;BME280;9737;59.466;18.036;2023-05-02T06:41:15;98108.66;;;4.76;75.86
19208;BME280;9737;59.466;18.036;2023-05-02T06:43:44;98165.53;;;4.88;75.37
19208;BME280;9737;59.466;18.036;2023-05-02T06:46:12;98203.31;;;4.98;75.44
19208;BME280;9737;59.466;18.036;2023-05-02T06:48:40;98178.34;;;4.92;76.17
19208;BME280;9737;59.466;18.036;2023-05-02T06:51:07;98187.06;;;4.93;76.03
19208;BME280;9737;59.466;18.036;2023-05-02T06:53:36;98165.53;;;4.88;75.87
19208;BME280;9737;59.466;18.036;2023-05-02T06:56:04;98107.00;;;4.75;75.46
19208;BME280;9737;59.466;18.036;2023-05-02T06:58:34;98094.09;;;4.72;75.57
19208;BME280;9737;59.466;18.036;2023-05-02T07:01:01;98063.19;;;4.64;75.88
19208;BME280;9737;59.466;18.036;2023-05-02T07:03:30;97998.81;;;4.47;75.99
19208;BME280;9737;59.466;18.036;2023-05-02T07:05:58;97998.81;;;4.47;75.69
19208;BME280;9737;59.466;18.036;2023-05-02T07:08:26;98004.09;;;4.47;75.76
19208;BME280;9737;59.466;18.036;2023-05-02T07:10:54;97968.03;;;4.38;75.74
19208;BME280;9737;59.466;18.036;2023-05-02T07:13:21;98013.50;;;4.50;76.21
19208;BME280;9737;59.466;18.036;2023-05-02T07:15:51;98035.00;;;4.55;75.72
19208;BME280;9737;59.466;18.036;2023-05-02T07:18:19;98031.66;;;4.53;75.75
19208;BME280;9737;59.466;18.036;2023-05-02T07:20:48;98056.34;;;4.61;76.20
19208;BME280;9737;59.466;18.036;2023-05-02T07:23:16;98040.13;;;4.56;75.95
19208;BME280;9737;59.466;18.036;2023-05-02T07:25:44;98026.25;;;4.54;76.16
19208;BME280;9737;59.466;18.036;2023-05-02T07:28:14;98096.16;;;4.68;75.93
19208;BME280;9737;59.466;18.036;2023-05-02T07:30:45;98229.13;;;5.04;75.61
19208;BME280;9737;59.466;18.036;2023-05-02T07:33:14;98338.84;;;5.36;76.46
19208;BME280;9737;59.466;18.036;2023-05-02T07:35:42;98442.22;;;5.60;76.16
19208;BME280;9737;59.466;18.036;2023-05-02T07:38:10;98496.56;;;5.72;76.28
19208;BME280;9737;59.466;18.036;2023-05-02T07:40:38;98574.91;;;5.93;75.85
19208;BME280;9737;59.466;18.036;2023-05-02T07:43:06;98599.94;;;5.98;76.00
19208;BME280;9737;59.466;18.036;2023-05-02T07:45:36;98604.13;;;6.01;75.92
19208;BME280;9737;59.466;18.036;2023-05-02T07:48:04;98680.13;;;6.18;76.46
19208;BME280;9737;59.466;18.036;2023-05-02T07:50:33;98730.91;;;6.31;75.93
19208;BME280;9737;59.466;18.036;2023-05-02T07:53:01;98937.94;;;6.83;76.36
19208;BME280;9737;59.466;18.036;2023-05-02T07:55:29;99094.19;;;7.23;76.43
19208;BME280;9737;59.466;18.036;2023-05-02T07:57:58;99231.06;;;7.53;76.44
19208;BME280;9737;59.466;18.036;2023-05-02T08:00:26;99307.03;;;7.73;76.47
19208;BME280;9737;59.466;18.036;2023-05-02T08:02:54;99144.75;;;7.30;76.85
19208;BME280;9737;59.466;18.036;2023-05-02T08:05:22;99133.34;;;7.29;76.78
19208;BME280;9737;59.466;18.036;2023-05-02T08:07:51;99000.28;;;6.97;76.36
19208;BME280;9737;59.466;18.036;2023-05-02T08:10:19;98859.72;;;6.60;76.46
19208;BME280;9737;59.466;18.036;2023-05-02T08:12:46;98811.28;;;6.49;76.19
19208;BME280;9737;59.466;18.036;2023-05-02T08:15:14;98759.69;;;6.34;76.70
19208;BME280;9737;59.466;18.036;2023-05-02T08:17:42;98794.13;;;6.44;76.65
19208;BME280;9737;59.466;18.036;2023-05-02T08:20:10;98792.44;;;6.43;76.68
19208;BME280;9737;59.466;18.036;2023-05-02T08:22:38;98726.84;;;6.27;76.17
19208;BME280;9737;59.466;18.036;2023-05-02T08:25:08;98804.31;;;6.48;76.47
19208;BME280;9737;59.466;18.036;2023-05-02T08:27:36;98817.25;;;6.51;76.49
19208;BME280;9737;59.466;18.036;2023-05-02T08:30:05;99049.50;;;7.09;76.01
19208;BME280;9737;59.466;18.036;2023-05-02T08:32:34;99332.16;;;7.79;76.34
19208;BME280;9737;59.466;18.036;2023-05-02T08:35:02;99911.25;;;9.20;76.03
19208;BME280;9737;59.466;18.036;2023-05-02T08:37:30;100552.22;;;10.78;76.87
19208;BME280;9737;59.466;18.036;2023-05-02T08:39:59;101090.06;;;12.05;76.68
19208;BME280;9737;59.466;18.036;2023-05-02T08:42:32;101336.81;;;12.63;76.86
19208;BME280;9737;59.466;18.036;2023-05-02T08:45:00;101648.97;;;13.35;76.88
19208;BME280;9737;59.466;18.036;2023-05-02T08:47:28;101786.81;;;13.66;76.82
19208;BME280;9737;59.466;18.036;2023-05-02T08:49:59;101337.03;;;12.60;77.14
19208;BME280;9737;59.466;18.036;2023-05-02T08:52:28;100597.09;;;10.83;76.89
19208;BME280;9737;59.466;18.036;2023-05-02T08:54:57;100228.81;;;9.93;76.95
19208;BME280;9737;59.466;18.036;2023-05-02T08:57:29;99881.34;;;9.07;76.63
19208;BME280;9737;59.466;18.036;2023-05-02T08:59:58;99833.34;;;8.99;76.40
19208;BME280;9737;59.466;18.036;2023-05-02T09:02:39;99952.19;;;9.29;76.38
19208;BME280;9737;59.466;18.036;2023-05-02T09:05:15;100571.56;;;10.80;76.52
19208;BME280;9737;59.466;18.036;2023-05-02T09:07:47;101055.31;;;11.94;76.71
19208;BME280;9737;59.466;18.036;2023-05-02T09:10:15;101435.09;;;12.84;76.66
19208;BME280;9737;59.466;18.036;2023-05-02T09:12:44;101856.16;;;13.81;76.41
19208;BME280;9737;59.466;18.036;2023-05-02T09:15:12;101562.38;;;13.10;76.80
19208;BME280;9737;59.466;18.036;2023-05-02T09:17:46;101155.53;;;12.09;76.50
19208;BME280;9737;59.466;18.036;2023-05-02T09:20:15;101253.09;;;12.39;76.70
19208;BME280;9737;59.466;18.036;2023-05-02T09:22:47;101004.63;;;11.82;76.60
19208;BME280;9737;59.466;18.036;2023-05-02T09:25:16;101238.16;;;12.36;76.23
19208;BME280;9737;59.466;18.036;2023-05-02T09:27:50;101840.31;;;13.78;76.66
19208;BME280;9737;59.466;18.036;2023-05-02T09:30:22;102472.81;;;15.24;76.60
19208;BME280;9737;59.466;18.036;2023-05-02T09:32:51;102860.94;;;16.14;76.41
19208;BME280;9737;59.466;18.036;2023-05-02T09:35:21;102995.31;;;16.42;76.59
19208;BME280;9737;59.466;18.036;2023-05-02T09:37:53;103022.72;;;16.49;76.50
19208;BME280;9737;59.466;18.036;2023-05-02T09:40:22;102760.56;;;15.86;76.37
19208;BME280;9737;59.466;18.036;2023-05-02T09:42:51;102837.22;;;16.06;76.40
19208;BME280;9737;59.466;18.036;2023-05-02T09:45:20;103183.78;;;16.83;76.14
19208;BME280;9737;59.466;18.036;2023-05-02T09:47:48;103346.50;;;17.22;76.07
19208;BME280;9737;59.466;18.036;2023-05-02T09:50:35;103244.81;;;16.97;76.20
19208;BME280;9737;59.466;18.036;2023-05-02T09:53:05;102407.91;;;15.05;76.00
19208;BME280;9737;59.466;18.036;2023-05-02T09:55:33;101928.38;;;13.95;75.82
19208;BME280;9737;59.466;18.036;2023-05-02T09:58:02;102041.84;;;14.20;75.99
19208;BME280;9737;59.466;18.036;2023-05-02T10:00:39;102831.66;;;16.09;75.60
19208;BME280;9737;59.466;18.036;2023-05-02T10:03:07;103407.53;;;17.37;75.59
19208;BME280;9737;59.466;18.036;2023-05-02T10:05:36;103978.94;;;18.63;75.43
19208;BME280;9737;59.466;18.036;2023-05-02T10:08:06;104380.13;;;19.50;75.53
19208;BME280;9737;59.466;18.036;2023-05-02T10:10:36;103924.81;;;18.49;75.66
19208;BME280;9737;59.466;18.036;2023-05-02T10:13:07;103784.41;;;18.20;75.54
19208;BME280;9737;59.466;18.036;2023-05-02T10:15:39;103845.91;;;18.30;75.33
19208;BME280;9737;59.466;18.036;2023-05-02T10:18:21;104115.84;;;18.93;75.22
19208;BME280;9737;59.466;18.036;2023-05-02T10:20:56;104235.88;;;19.20;75.05
19208;BME280;9737;59.466;18.036;2023-05-02T10:23:28;104797.22;;;20.44;74.98
19208;BME280;9737;59.466;18.036;2023-05-02T10:25:58;104214.44;;;19.17;75.22
19208;BME280;9737;59.466;18.036;2023-05-02T10:28:29;103590.13;;;17.78;74.82
19208;BME280;9737;59.466;18.036;2023-05-02T10:30:57;102707.44;;;15.77;74.90
19208;BME280;9737;59.466;18.036;2023-05-02T10:33:28;101998.44;;;14.15;74.23
19208;BME280;9737;59.466;18.036;2023-05-02T10:35:57;101720.00;;;13.51;73.96
19208;BME280;9737;59.466;18.036;2023-05-02T10:38:25;102296.41;;;14.88;73.81
19208;BME280;9737;59.466;18.036;2023-05-02T10:40:55;102850.09;;;16.15;73.97
19208;BME280;9737;59.466;18.036;2023-05-02T10:43:26;103159.41;;;16.86;73.94
19208;BME280;9737;59.466;18.036;2023-05-02T10:45:56;103798.19;;;18.32;73.76
19208;BME280;9737;59.466;18.036;2023-05-02T10:48:24;104259.53;;;19.32;73.80
19208;BME280;9737;59.466;18.036;2023-05-02T10:50:54;104716.66;;;20.31;73.64
19208;BME280;9737;59.466;18.036;2023-05-02T10:53:30;104611.38;;;20.09;73.69
19208;BME280;9737;59.466;18.036;2023-05-02T10:56:17;103775.41;;;18.21;73.69
19208;BME280;9737;59.466;18.036;2023-05-02T10:58:47;102918.06;;;16.31;73.29
19208;BME280;9737;59.466;18.036;2023-05-02T11:01:37;102147.78;;;14.52;73.11
19208;BME280;9737;59.466;18.036;2023-05-02T11:04:10;101566.41;;;13.17;72.71
19208;BME280;9737;59.466;18.036;2023-05-02T11:07:15;101000.91;;;11.84;72.50
19208;BME280;9737;59.466;18.036;2023-05-02T11:09:44;100840.19;;;11.45;72.06
19208;BME280;9737;59.466;18.036;2023-05-02T11:12:44;100792.06;;;11.36;71.72
19208;BME280;9737;59.466;18.036;2023-05-02T11:15:13;100851.38;;;11.51;71.78
19208;BME280;9737;59.466;18.036;2023-05-02T11:17:59;101907.13;;;14.07;71.65
19208;BME280;9737;59.466;18.036;2023-05-02T11:20:28;103093.44;;;16.81;71.79
19208;BME280;9737;59.466;18.036;2023-05-02T11:22:59;104137.13;;;19.16;72.03
19208;BME280;9737;59.466;18.036;2023-05-02T11:25:48;104327.72;;;19.55;72.12
19208;BME280;9737;59.466;18.036;2023-05-02T11:28:40;104264.50;;;19.41;72.19
19208;BME280;9737;59.466;18.036;2023-05-02T11:31:09;103868.88;;;18.54;71.75
19208;BME280;9737;59.466;18.036;2023-05-02T11:33:59;104332.03;;;19.59;71.81
19208;BME280;9737;59.466;18.036;2023-05-02T11:36:27;104161.97;;;19.23;71.88
19208;BME280;9737;59.466;18.036;2023-05-02T11:38:56;103463.38;;;17.65;71.64
19208;BME280;9737;59.466;18.036;2023-05-02T11:41:37;102995.31;;;16.58;71.20
19208;BME280;9737;59.466;18.036;2023-05-02T11:44:05;103296.00;;;17.27;71.13
19208;BME280;9737;59.466;18.036;2023-05-02T11:46:35;103405.63;;;17.55;71.01
19208;BME280;9737;59.466;18.036;2023-05-02T11:49:05;104111.03;;;19.16;70.71
19208;BME280;9737;59.466;18.036;2023-05-02T11:51:36;104673.00;;;20.39;71.11
19208;BME280;9737;59.466;18.036;2023-05-02T11:54:04;104393.22;;;19.77;70.89
19208;BME280;9737;59.466;18.036;2023-05-02T11:56:33;104099.59;;;19.11;70.77
19208;BME280;9737;59.466;18.036;2023-05-02T11:59:02;103747.78;;;18.34;70.56
19208;BME280;9737;59.466;18.036;2023-05-02T12:01:30;103317.81;;;17.38;70.43
19208;BME280;9737;59.466;18.036;2023-05-02T12:04:02;103535.75;;;17.87;69.98
19208;BME280;9737;59.466;18.036;2023-05-02T12:06:32;104323.47;;;19.68;70.07
19208;BME280;9737;59.466;18.036;2023-05-02T12:09:07;104733.41;;;20.58;69.95
19208;BME280;9737;59.466;18.036;2023-05-02T12:11:36;105120.06;;;21.44;70.03
19208;BME280;9737;59.466;18.036;2023-05-02T12:14:04;104605.88;;;20.30;69.98
19208;BME280;9737;59.466;18.036;2023-05-02T12:16:32;103966.88;;;18.87;69.59
19208;BME280;9737;59.466;18.036;2023-05-02T12:19:01;103767.09;;;18.42;69.66
19208;BME280;9737;59.466;18.036;2023-05-02T12:21:31;103464.53;;;17.77;69.50
19208;BME280;9737;59.466;18.036;2023-05-02T12:23:59;103040.56;;;16.81;69.14
19208;BME280;9737;59.466;18.036;2023-05-02T12:26:28;102332.19;;;15.15;69.05
19208;BME280;9737;59.466;18.036;2023-05-02T12:28:58;102067.25;;;14.55;68.68
19208;BME280;9737;59.466;18.036;2023-05-02T12:31:28;101895.06;;;14.14;68.58
19208;BME280;9737;59.466;18.036;2023-05-02T12:33:58;101785.19;;;13.90;68.05
19208;BME280;9737;59.466;18.036;2023-05-02T12:36:27;101603.47;;;13.49;67.93
19208;BME280;9737;59.466;18.036;2023-05-02T12:38:57;101915.78;;;14.24;67.68
19208;BME280;9737;59.466;18.036;2023-05-02T12:41:30;102108.44;;;14.67;68.00
19208;BME280;9737;59.466;18.036;2023-05-02T12:43:58;102107.38;;;14.70;67.60
19208;BME280;9737;59.466;18.036;2023-05-02T12:46:27;102627.84;;;15.92;67.56
19208;BME280;9737;59.466;18.036;2023-05-02T12:49:05;102897.56;;;16.45;67.52
19208;BME280;9737;59.466;18.036;2023-05-02T12:51:35;103458.53;;;17.87;67.62
19208;BME280;9737;59.466;18.036;2023-05-02T12:54:04;103599.47;;;18.19;67.63
19208;BME280;9737;59.466;18.036;2023-05-02T12:56:37;103306.50;;;17.47;67.59
19208;BME280;9737;59.466;18.036;2023-05-02T12:59:05;102869.50;;;16.50;67.56
19208;BME280;9737;59.466;18.036;2023-05-02T13:01:34;102401.31;;;15.39;67.16
19208;BME280;9737;59.466;18.036;2023-05-02T13:04:02;101956.16;;;14.34;66.63
19208;BME280;9737;59.466;18.036;2023-05-02T13:06:31;101843.47;;;14.12;66.61
19208;BME280;9737;59.466;18.036;2023-05-02T13:08:59;102163.31;;;14.88;66.66
19208;BME280;9737;59.466;18.036;2023-05-02T13:11:28;102229.31;;;15.04;66.88
19208;BME280;9737;59.466;18.036;2023-05-02T13:13:56;102114.06;;;14.77;66.50
19208;BME280;9737;59.466;18.036;2023-05-02T13:16:25;101990.97;;;14.48;66.28
19208;BME280;9737;59.466;18.036;2023-05-02T13:18:56;102554.88;;;15.85;66.39